createdAt,value
2023-01-01T00:01:17.604Z,100191.59
2023-01-01T00:03:22.114Z,100200.47
2023-01-01T00:05:26.742Z,100200.91
2023-01-01T00:07:31.148Z,100200.88
2023-01-01T00:09:35.613Z,100201.64
2023-01-01T00:11:40.038Z,100199.38
2023-01-01T00:13:44.458Z,100204.14
2023-01-01T00:15:48.866Z,100203.67
2023-01-01T00:17:53.272Z,100199.73
2023-01-01T00:19:57.725Z,100201.59
2023-01-01T00:22:44.006Z,100205.27
2023-01-01T00:24:58.887Z,100194.55
2023-01-01T00:27:03.431Z,100195.23
2023-01-01T00:29:07.835Z,100188.63
2023-01-01T00:31:12.358Z,100191.45
2023-01-01T00:33:16.765Z,100195.89
2023-01-01T00:35:21.250Z,100201.63
2023-01-01T00:37:25.660Z,100204.38
2023-01-01T00:39:30.022Z,100203.45
2023-01-01T00:41:34.459Z,100199.39
2023-01-01T00:43:38.854Z,100212.88
2023-01-01T00:45:43.341Z,100212.52
2023-01-01T00:47:47.860Z,100212.05
2023-01-01T00:49:52.255Z,100207.08
2023-01-01T00:51:56.685Z,100199.67
2023-01-01T00:54:01.089Z,100198.77
2023-01-01T00:56:05.508Z,100205.63
2023-01-01T00:58:10.090Z,100208.93
2023-01-01T01:00:14.900Z,100209.38
2023-01-01T01:02:19.638Z,100204.77
2023-01-01T01:04:24.565Z,100214.63
2023-01-01T01:06:28.943Z,100210.72
2023-01-01T01:08:33.359Z,100210.19
2023-01-01T01:10:37.748Z,100218.14
2023-01-01T01:12:42.162Z,100220.36
2023-01-01T01:14:46.644Z,100228.05
2023-01-01T01:16:51.169Z,100226.17
2023-01-01T01:18:55.664Z,100230.19
2023-01-01T01:21:00.073Z,100229.88
2023-01-01T01:23:04.494Z,100234.16
2023-01-01T01:25:08.937Z,100235.78
2023-01-01T01:27:13.343Z,100238.91
2023-01-01T01:29:17.720Z,100238.84
2023-01-01T01:31:22.439Z,100242.47
2023-01-01T01:33:26.894Z,100235.89
2023-01-01T01:35:31.411Z,100238.95
2023-01-01T01:37:35.805Z,100238.83
2023-01-01T01:39:40.210Z,100241.19
2023-01-01T01:41:44.584Z,100243.26
2023-01-01T01:43:48.974Z,100246.42
2023-01-01T01:45:53.466Z,100242.17
2023-01-01T01:47:58.082Z,100244.34
2023-01-01T01:50:02.653Z,100244.45
2023-01-01T01:52:07.090Z,100250.63
2023-01-01T01:54:11.536Z,100248.06
2023-01-01T01:56:16.017Z,100249.27
2023-01-01T01:58:20.389Z,100246.38
2023-01-01T02:00:24.783Z,100250.56
2023-01-01T02:02:29.765Z,100247.3
2023-01-01T02:04:34.448Z,100254.33
2023-01-01T02:06:38.818Z,100249.03
2023-01-01T02:08:43.222Z,100254.36
2023-01-01T02:10:47.588Z,100252.64
2023-01-01T02:12:52.014Z,100258.66
2023-01-01T02:14:56.591Z,100259.42
2023-01-01T02:17:01.070Z,100258.2
2023-01-01T02:19:05.469Z,100255.77
2023-01-01T02:21:09.893Z,100251.28
2023-01-01T02:23:14.371Z,100251.63
2023-01-01T02:25:18.892Z,100251.9
2023-01-01T02:27:23.288Z,100245.95
2023-01-01T02:29:27.668Z,100252.7
2023-01-01T02:31:32.251Z,100243.84
2023-01-01T02:33:36.754Z,100252.04
2023-01-01T02:35:41.137Z,100253.23
2023-01-01T02:37:45.618Z,100258.23
2023-01-01T02:39:50.009Z,100263.69
2023-01-01T02:41:54.403Z,100261.62
2023-01-01T02:46:00.725Z,100263.42
2023-01-01T02:48:05.270Z,100257.75
2023-01-01T02:50:09.714Z,100260.78
2023-01-01T02:52:14.149Z,100268.19
2023-01-01T02:54:18.556Z,100271.6
2023-01-01T02:56:23.039Z,100268.7
2023-01-01T02:58:27.439Z,100274.7
2023-01-01T03:00:31.907Z,100272.25
2023-01-01T03:02:36.580Z,100273.05
2023-01-01T03:04:41.250Z,100265.05
2023-01-01T03:06:45.676Z,100270.33
2023-01-01T03:08:50.201Z,100275.13
2023-01-01T03:10:54.594Z,100269.53
2023-01-01T03:12:59.001Z,100275.14
2023-01-01T03:15:03.378Z,100282.15
2023-01-01T03:17:07.816Z,100280.31
2023-01-01T03:19:12.606Z,100283.52
2023-01-01T03:23:18.759Z,100288.92
2023-01-01T03:25:23.211Z,100285.08
2023-01-01T03:27:27.624Z,100291.41
2023-01-01T03:29:31.997Z,100290.13
2023-01-01T03:31:36.500Z,100290.78
2023-01-01T03:33:40.984Z,100293.88
2023-01-01T03:35:45.365Z,100296.88
2023-01-01T03:37:49.828Z,100292.28
2023-01-01T03:39:54.195Z,100291.23
2023-01-01T03:41:58.540Z,100292.47
2023-01-01T03:44:02.947Z,100285.5
2023-01-01T03:46:07.349Z,100289.94
2023-01-01T03:48:11.806Z,100289.88
2023-01-01T03:50:16.212Z,100293.41
2023-01-01T03:52:20.643Z,100300.3
2023-01-01T03:54:25.053Z,100296.48
2023-01-01T03:56:29.421Z,100297.94
2023-01-01T03:58:33.784Z,100293.79
2023-01-01T04:00:38.196Z,100296.8
2023-01-01T04:02:42.947Z,100305.56
2023-01-01T04:04:47.670Z,100307.21
2023-01-01T04:06:52.124Z,100310.09
2023-01-01T04:08:56.535Z,100311.55
2023-01-01T04:12:54.368Z,100308.28
2023-01-01T04:14:58.768Z,100308.06
2023-01-01T04:17:03.243Z,100309.18
2023-01-01T04:19:07.604Z,100311.41
2023-01-01T04:21:12.092Z,100316.13
2023-01-01T04:23:16.605Z,100315.45
2023-01-01T04:25:21.117Z,100321
2023-01-01T04:27:25.524Z,100319.47
2023-01-01T04:29:29.927Z,100321.73
2023-01-01T04:31:34.318Z,100323.86
2023-01-01T04:33:38.823Z,100322.41
2023-01-01T04:35:43.252Z,100317.34
2023-01-01T04:37:47.702Z,100321.44
2023-01-01T04:39:52.090Z,100323.06
2023-01-01T04:41:56.489Z,100321.59
2023-01-01T04:44:00.880Z,100325.8
2023-01-01T04:46:05.507Z,100337.17
2023-01-01T04:48:09.969Z,100342.15
2023-01-01T04:50:14.429Z,100350.97
2023-01-01T04:52:18.827Z,100348.72
2023-01-01T04:54:23.196Z,100352.43
2023-01-01T04:56:27.620Z,100345.09
2023-01-01T04:58:31.991Z,100354.23
2023-01-01T05:00:36.494Z,100359.88
2023-01-01T05:02:41.327Z,100364.05
2023-01-01T05:04:46.051Z,100357.45
2023-01-01T05:06:50.473Z,100355.95
2023-01-01T05:08:54.851Z,100359.59
2023-01-01T05:10:59.236Z,100367.07
2023-01-01T05:13:03.641Z,100365.52
2023-01-01T05:15:08.018Z,100362.38
2023-01-01T05:17:12.570Z,100367.59
2023-01-01T05:19:17.062Z,100367.56
2023-01-01T05:21:21.424Z,100373.23
2023-01-01T05:23:25.813Z,100370.16
2023-01-01T05:25:30.202Z,100367.66
2023-01-01T05:27:34.621Z,100372.27
2023-01-01T05:29:38.986Z,100367.54
2023-01-01T05:31:43.593Z,100373.72
2023-01-01T05:33:48.241Z,100369.31
2023-01-01T05:35:52.699Z,100373.66
2023-01-01T05:37:57.101Z,100378.55
2023-01-01T05:40:01.491Z,100382.19
2023-01-01T05:42:05.909Z,100379.7
2023-01-01T05:44:10.314Z,100381.63
2023-01-01T05:46:14.876Z,100380.45
2023-01-01T05:48:19.362Z,100379.79
2023-01-01T05:50:23.716Z,100381.03
2023-01-01T05:52:28.216Z,100385.95
2023-01-01T05:54:32.735Z,100383.45
2023-01-01T05:56:37.101Z,100382.25
2023-01-01T05:58:41.490Z,100379.59
2023-01-01T06:00:45.888Z,100383.68
2023-01-01T06:02:50.477Z,100385.5
2023-01-01T06:04:55.045Z,100384.69
2023-01-01T06:06:59.462Z,100386.18
2023-01-01T06:09:03.866Z,100388
2023-01-01T06:11:08.397Z,100386.05
2023-01-01T06:13:14.623Z,100389.77
2023-01-01T06:15:19.002Z,100391.22
2023-01-01T06:17:23.384Z,100388.88
2023-01-01T06:19:27.761Z,100388.2
2023-01-01T06:21:32.216Z,100382.73
2023-01-01T06:23:36.617Z,100385.42
2023-01-01T06:25:41.045Z,100385.89
2023-01-01T06:27:45.412Z,100382.09
2023-01-01T06:29:49.782Z,100387.52
2023-01-01T06:31:54.303Z,100384.16
2023-01-01T06:33:58.819Z,100385.61
2023-01-01T06:36:03.183Z,100387.59
2023-01-01T06:38:07.606Z,100383.3
2023-01-01T06:40:11.957Z,100383.13
2023-01-01T06:42:16.356Z,100383.22
2023-01-01T06:44:20.798Z,100383.7
2023-01-01T06:46:25.554Z,100387.83
2023-01-01T06:48:30.239Z,100386.23
2023-01-01T06:50:34.622Z,100387.85
2023-01-01T06:52:39.025Z,100393.7
2023-01-01T06:54:43.418Z,100393.41
2023-01-01T06:56:47.804Z,100398.73
2023-01-01T06:58:52.196Z,100397.17
2023-01-01T07:00:56.614Z,100397.9
2023-01-01T07:03:01.632Z,100399.64
2023-01-01T07:05:06.624Z,100402.95
2023-01-01T07:07:11.011Z,100415.13
2023-01-01T07:09:15.420Z,100422.97
2023-01-01T07:11:19.940Z,100422.55
2023-01-01T07:13:24.628Z,100422.44
2023-01-01T07:15:29.022Z,100427.5
2023-01-01T07:17:33.610Z,100424.74
2023-01-01T07:19:38.040Z,100423.35
2023-01-01T07:21:42.437Z,100429.09
2023-01-01T07:23:46.944Z,100428.77
2023-01-01T07:25:51.368Z,100430.14
2023-01-01T07:27:55.778Z,100427.13
2023-01-01T07:30:00.201Z,100427.58
2023-01-01T07:32:04.579Z,100435.43
2023-01-01T07:34:08.960Z,100442.05
2023-01-01T07:36:13.321Z,100436.04
2023-01-01T07:38:17.719Z,100439.54
2023-01-01T07:40:22.130Z,100436.33
2023-01-01T07:42:26.497Z,100430.39
2023-01-01T07:44:30.919Z,100439.88
2023-01-01T07:46:35.485Z,100441.77
2023-01-01T07:48:41.390Z,100449.53
2023-01-01T07:50:45.829Z,100452.67
2023-01-01T07:52:50.281Z,100452.48
2023-01-01T07:54:54.680Z,100457.82
2023-01-01T07:56:59.104Z,100456.52
2023-01-01T07:59:03.563Z,100448.56
2023-01-01T08:01:08.105Z,100450.92
2023-01-01T08:03:12.791Z,100454.69
2023-01-01T08:05:26.760Z,100452.33
2023-01-01T08:07:31.570Z,100455.17
2023-01-01T08:09:35.982Z,100455.71
2023-01-01T08:11:40.434Z,100458.48
2023-01-01T08:13:44.838Z,100460.91
2023-01-01T08:15:49.379Z,100457.42
2023-01-01T08:17:53.894Z,100457.2
2023-01-01T08:19:58.286Z,100449.25
2023-01-01T08:22:02.654Z,100453.09
2023-01-01T08:24:07.112Z,100449.21
2023-01-01T08:26:11.486Z,100453.45
2023-01-01T08:28:15.866Z,100451.91
2023-01-01T08:30:20.298Z,100453.66
2023-01-01T08:32:24.707Z,100464.03
2023-01-01T08:34:29.142Z,100464.56
2023-01-01T08:36:33.515Z,100467.23
2023-01-01T08:38:37.914Z,100463.25
2023-01-01T08:40:42.335Z,100461.55
2023-01-01T08:42:46.749Z,100461.97
2023-01-01T08:44:51.283Z,100467.11
2023-01-01T08:46:55.947Z,100464.09
2023-01-01T08:49:00.519Z,100465.68
2023-01-01T08:51:04.919Z,100468.59
2023-01-01T08:53:09.394Z,100472.19
2023-01-01T08:55:13.830Z,100487.65
2023-01-01T08:57:18.206Z,100486.13
2023-01-01T08:59:22.583Z,100497.14
2023-01-01T09:01:27.157Z,100493.14
2023-01-01T09:03:31.977Z,100490.71
2023-01-01T09:05:36.564Z,100498.27
2023-01-01T09:07:40.949Z,100505.14
2023-01-01T09:09:45.386Z,100515.62
2023-01-01T09:11:49.768Z,100512.64
2023-01-01T09:13:54.188Z,100500.75
2023-01-01T09:15:58.687Z,100503.48
2023-01-01T09:18:03.197Z,100502.26
2023-01-01T09:20:07.584Z,100499.98
2023-01-01T09:22:12.045Z,100500.06
2023-01-01T09:24:16.555Z,100500.1
2023-01-01T09:26:20.950Z,100495.5
2023-01-01T09:28:27.202Z,100490.36
2023-01-01T09:30:31.592Z,100492.56
2023-01-01T09:32:35.973Z,100503.58
2023-01-01T09:34:40.374Z,100497.03
2023-01-01T09:36:44.804Z,100490.87
2023-01-01T09:38:49.243Z,100496.66
2023-01-01T09:40:53.670Z,100502.55
2023-01-01T09:42:58.037Z,100491.06
2023-01-01T09:45:02.670Z,100489.05
2023-01-01T09:47:07.108Z,100486.84
2023-01-01T09:49:11.637Z,100489.93
2023-01-01T09:51:16.009Z,100480.3
2023-01-01T09:53:20.494Z,100483.45
2023-01-01T09:55:24.892Z,100478.4
2023-01-01T09:57:29.359Z,100479.22
2023-01-01T09:59:34.255Z,100478.55
2023-01-01T10:01:38.918Z,100483.52
2023-01-01T10:03:43.790Z,100478.25
2023-01-01T10:05:48.344Z,100477.85
2023-01-01T10:07:52.744Z,100480.91
2023-01-01T10:09:57.147Z,100490.42
2023-01-01T10:12:01.666Z,100499.89
2023-01-01T10:14:06.151Z,100498.44
2023-01-01T10:16:10.723Z,100504.11
2023-01-01T10:18:15.217Z,100503.36
2023-01-01T10:20:19.635Z,100505.55
2023-01-01T10:22:24.068Z,100502.66
2023-01-01T10:24:28.440Z,100501.61
2023-01-01T10:26:32.907Z,100510.34
2023-01-01T10:28:37.346Z,100509.61
2023-01-01T10:30:41.828Z,100514.16
2023-01-01T10:32:46.184Z,100517.15
2023-01-01T10:34:50.554Z,100521.89
2023-01-01T10:36:54.982Z,100518.4
2023-01-01T10:38:59.520Z,100527.54
2023-01-01T10:41:03.975Z,100523.95
2023-01-01T10:43:08.505Z,100514.64
2023-01-01T10:45:12.922Z,100517.97
2023-01-01T10:47:17.453Z,100507.36
2023-01-01T10:49:21.876Z,100498.38
2023-01-01T10:51:26.303Z,100495.42
2023-01-01T10:53:30.722Z,100495.23
2023-01-01T10:55:35.162Z,100496.47
2023-01-01T10:57:39.516Z,100498.92
2023-01-01T10:59:54.375Z,100496.91
2023-01-01T11:01:59.529Z,100500.11
2023-01-01T11:04:04.262Z,100499.14
2023-01-01T11:06:08.636Z,100504.05
2023-01-01T11:08:13.000Z,100500.9
2023-01-01T11:10:17.422Z,100510.78
2023-01-01T11:13:05.435Z,100505.13
2023-01-01T11:15:10.684Z,100500.06
2023-01-01T11:17:15.083Z,100498.59
2023-01-01T11:19:19.470Z,100498.59
2023-01-01T11:21:24.045Z,100492.48
2023-01-01T11:23:28.553Z,100496.25
2023-01-01T11:25:32.948Z,100496.52
2023-01-01T11:27:37.336Z,100504.48
2023-01-01T11:29:41.856Z,100504.71
2023-01-01T11:31:46.270Z,100495.78
2023-01-01T11:33:50.693Z,100491.55
2023-01-01T11:35:55.139Z,100493.52
2023-01-01T11:37:59.551Z,100487.22
2023-01-01T11:40:04.021Z,100490.86
2023-01-01T11:42:08.445Z,100480.27
2023-01-01T11:44:12.822Z,100483.02
2023-01-01T11:46:17.362Z,100487.17
2023-01-01T11:48:21.855Z,100489.67
2023-01-01T11:50:26.246Z,100487.74
2023-01-01T11:52:31.054Z,100485.52
2023-01-01T11:54:35.438Z,100491.97
2023-01-01T11:56:39.840Z,100500.02
2023-01-01T11:58:44.244Z,100488.55
2023-01-01T12:00:48.641Z,100488.64
2023-01-01T12:02:53.319Z,100480.58
2023-01-01T12:04:57.799Z,100489.14
2023-01-01T12:07:02.337Z,100492.17
2023-01-01T12:09:06.739Z,100489.58
2023-01-01T12:11:12.569Z,100487.14
2023-01-01T12:13:16.958Z,100488.38
2023-01-01T12:15:21.392Z,100492.44
2023-01-01T12:17:25.837Z,100495.26
2023-01-01T12:19:30.265Z,100495.19
2023-01-01T12:21:34.664Z,100490.23
2023-01-01T12:23:39.063Z,100486.95
2023-01-01T12:25:43.527Z,100490.12
2023-01-01T12:27:47.934Z,100491.34
2023-01-01T12:29:52.388Z,100488.62
2023-01-01T12:31:56.782Z,100489.58
2023-01-01T12:34:01.225Z,100486.38
2023-01-01T12:36:05.629Z,100491.55
2023-01-01T12:38:10.048Z,100491.61
2023-01-01T12:40:24.713Z,100492.88
2023-01-01T12:42:29.601Z,100493.01
2023-01-01T12:44:34.046Z,100492
2023-01-01T12:46:38.515Z,100494.09
2023-01-01T12:48:43.136Z,100493.61
2023-01-01T12:50:58.569Z,100490.66
2023-01-01T12:53:09.049Z,100483.61
2023-01-01T12:55:13.463Z,100496.8
2023-01-01T12:57:17.894Z,100501.77
2023-01-01T12:59:22.435Z,100503.23
2023-01-01T13:01:34.442Z,100505.88
2023-01-01T13:03:39.394Z,100506.81
2023-01-01T13:05:43.957Z,100507.06
2023-01-01T13:07:48.344Z,100512.11
2023-01-01T13:09:52.713Z,100512.11
2023-01-01T13:11:57.128Z,100513.72
2023-01-01T13:14:01.638Z,100515.88
2023-01-01T13:16:06.384Z,100518
2023-01-01T13:18:10.909Z,100514.13
2023-01-01T13:20:15.530Z,100517.02
2023-01-01T13:22:19.976Z,100519.75
2023-01-01T13:24:24.548Z,100518.75
2023-01-01T13:26:29.031Z,100515.44
2023-01-01T13:28:33.581Z,100517.88
2023-01-01T13:30:38.022Z,100522.27
2023-01-01T13:32:42.473Z,100522.97
2023-01-01T13:34:46.871Z,100536.53
2023-01-01T13:36:51.369Z,100538.73
2023-01-01T13:38:55.852Z,100547.31
2023-01-01T13:41:00.236Z,100545.81
2023-01-01T13:43:05.738Z,100548.13
2023-01-01T13:45:10.183Z,100541.48
2023-01-01T13:47:14.681Z,100544.5
2023-01-01T13:49:19.175Z,100548.13
2023-01-01T13:52:06.747Z,100549.59
2023-01-01T13:54:12.313Z,100556.78
2023-01-01T13:56:16.779Z,100559.11
2023-01-01T13:58:21.182Z,100555.66
2023-01-01T14:00:25.606Z,100560.52
2023-01-01T14:02:30.487Z,100558.23
2023-01-01T14:04:35.118Z,100560.39
2023-01-01T14:06:39.517Z,100559.08
2023-01-01T14:08:43.987Z,100556
2023-01-01T14:10:48.432Z,100553.4
2023-01-01T14:12:52.836Z,100559.13
2023-01-01T14:14:57.271Z,100559.23
2023-01-01T14:17:01.707Z,100556.3
2023-01-01T14:19:08.881Z,100553.45
2023-01-01T14:21:19.977Z,100557.81
2023-01-01T14:23:24.298Z,100553.75
2023-01-01T14:25:28.694Z,100547.91
2023-01-01T14:27:33.036Z,100552.17
2023-01-01T14:29:37.395Z,100552.62
2023-01-01T14:31:41.951Z,100546.08
2023-01-01T14:33:46.427Z,100556.52
2023-01-01T14:35:50.827Z,100556.81
2023-01-01T14:37:55.251Z,100557.61
2023-01-01T14:39:59.645Z,100555.41
2023-01-01T14:42:04.077Z,100557.56
2023-01-01T14:44:08.504Z,100557.19
2023-01-01T14:46:12.943Z,100560.08
2023-01-01T14:48:17.529Z,100562.95
2023-01-01T14:50:21.937Z,100566.44
2023-01-01T14:52:26.405Z,100569.95
2023-01-01T14:54:31.052Z,100569.87
2023-01-01T14:56:35.582Z,100576.8
2023-01-01T14:58:40.134Z,100580.91
2023-01-01T15:00:44.843Z,100579.7
2023-01-01T15:02:49.758Z,100586.33
2023-01-01T15:04:54.500Z,100589.68
2023-01-01T15:06:58.969Z,100593.19
2023-01-01T15:09:03.525Z,100595.84
2023-01-01T15:11:07.961Z,100599.06
2023-01-01T15:13:12.608Z,100602.95
2023-01-01T15:15:17.088Z,100603.45
2023-01-01T15:17:21.521Z,100606.02
2023-01-01T15:19:26.032Z,100610.69
2023-01-01T15:21:30.478Z,100611.44
2023-01-01T15:23:34.948Z,100609.23
2023-01-01T15:25:39.505Z,100614.29
2023-01-01T15:27:43.939Z,100615.55
2023-01-01T15:29:48.452Z,100618.44
2023-01-01T15:31:52.998Z,100624.91
2023-01-01T15:33:57.512Z,100623.88
2023-01-01T15:36:01.944Z,100623.95
2023-01-01T15:38:06.401Z,100630.48
2023-01-01T15:40:10.809Z,100632.46
2023-01-01T15:42:15.213Z,100629.66
2023-01-01T15:44:19.794Z,100632.44
2023-01-01T15:46:32.276Z,100636.25
2023-01-01T15:48:37.145Z,100643.47
2023-01-01T15:50:41.600Z,100640.67
2023-01-01T15:52:55.116Z,100648.14
2023-01-01T15:54:59.946Z,100645.67
2023-01-01T15:57:04.354Z,100647.67
2023-01-01T15:59:10.974Z,100650.64
2023-01-01T16:01:15.758Z,100651.55
2023-01-01T16:03:20.446Z,100656.45
2023-01-01T16:05:25.010Z,100661.49
2023-01-01T16:07:29.441Z,100665.53
2023-01-01T16:09:33.842Z,100663.53
2023-01-01T16:11:38.268Z,100668.3
2023-01-01T16:13:42.712Z,100675.5
2023-01-01T16:15:50.684Z,100674.33
2023-01-01T16:17:55.123Z,100673.36
2023-01-01T16:19:59.599Z,100674.33
2023-01-01T16:22:04.178Z,100675.98
2023-01-01T16:24:08.629Z,100672.23
2023-01-01T16:26:13.036Z,100673.44
2023-01-01T16:28:17.419Z,100669.72
2023-01-01T16:30:21.914Z,100669.66
2023-01-01T16:32:26.399Z,100671.17
2023-01-01T16:34:30.865Z,100671.88
2023-01-01T16:36:35.273Z,100669.4
2023-01-01T16:38:39.708Z,100672.56
2023-01-01T16:40:44.136Z,100673.94
2023-01-01T16:42:48.546Z,100675.3
2023-01-01T16:44:52.916Z,100673.52
2023-01-01T16:46:57.452Z,100669.99
2023-01-01T16:49:01.850Z,100669.77
2023-01-01T16:51:06.282Z,100670.66
2023-01-01T16:53:10.799Z,100677.55
2023-01-01T16:55:15.315Z,100682.81
2023-01-01T16:57:19.823Z,100684.47
2023-01-01T16:59:24.240Z,100684.64
2023-01-01T17:01:28.955Z,100690.76
2023-01-01T17:03:34.005Z,100691.45
2023-01-01T17:05:44.936Z,100695.77
2023-01-01T17:07:49.369Z,100704.59
2023-01-01T17:09:53.882Z,100707.6
2023-01-01T17:11:58.415Z,100694.48
2023-01-01T17:14:02.813Z,100696.67
2023-01-01T17:16:07.467Z,100695.34
2023-01-01T17:18:12.061Z,100696.84
2023-01-01T17:20:16.500Z,100694.06
2023-01-01T17:22:20.922Z,100700.68
2023-01-01T17:24:25.318Z,100699.36
2023-01-01T17:26:29.701Z,100699.42
2023-01-01T17:28:34.114Z,100704.59
2023-01-01T17:30:38.786Z,100704.38
2023-01-01T17:32:43.311Z,100702.05
2023-01-01T17:34:47.718Z,100700.67
2023-01-01T17:36:52.128Z,100699.18
2023-01-01T17:38:56.630Z,100693.81
2023-01-01T17:41:01.100Z,100690.81
2023-01-01T17:43:05.511Z,100691.51
2023-01-01T17:45:09.918Z,100688.22
2023-01-01T17:47:14.341Z,100689.41
2023-01-01T17:49:18.827Z,100693.81
2023-01-01T17:51:23.298Z,100699.44
2023-01-01T17:53:27.697Z,100697.52
2023-01-01T17:55:32.118Z,100698.77
2023-01-01T17:57:36.608Z,100698.21
2023-01-01T17:59:41.195Z,100697.19
2023-01-01T18:01:45.958Z,100693.34
2023-01-01T18:03:50.596Z,100694.14
2023-01-01T18:05:54.996Z,100688.32
2023-01-01T18:07:59.489Z,100693.92
2023-01-01T18:10:03.922Z,100693.93
2023-01-01T18:12:08.326Z,100702.63
2023-01-01T18:14:12.796Z,100698.88
2023-01-01T18:16:19.020Z,100698.63
2023-01-01T18:18:23.606Z,100700.33
2023-01-01T18:20:28.001Z,100702.2
2023-01-01T18:22:33.257Z,100703.1
2023-01-01T18:24:46.472Z,100705.02
2023-01-01T18:26:50.862Z,100708.69
2023-01-01T18:28:55.309Z,100707
2023-01-01T18:30:59.848Z,100713.83
2023-01-01T18:33:04.371Z,100715.5
2023-01-01T18:35:09.020Z,100720.27
2023-01-01T18:37:13.428Z,100722.76
2023-01-01T18:39:17.919Z,100720.34
2023-01-01T18:41:22.325Z,100716.34
2023-01-01T18:43:26.733Z,100719.1
2023-01-01T18:45:31.180Z,100729.52
2023-01-01T18:47:35.587Z,100725.48
2023-01-01T18:49:40.001Z,100723.45
2023-01-01T18:51:44.654Z,100721.81
2023-01-01T18:53:49.053Z,100723.85
2023-01-01T18:55:53.497Z,100726.73
2023-01-01T18:57:57.972Z,100724.7
2023-01-01T19:00:02.494Z,100723.73
2023-01-01T19:02:07.314Z,100726.95
2023-01-01T19:04:11.881Z,100730.59
2023-01-01T19:06:16.283Z,100735.09
2023-01-01T19:08:20.666Z,100734.91
2023-01-01T19:10:25.059Z,100730.84
2023-01-01T19:12:29.640Z,100731.06
2023-01-01T19:14:34.052Z,100729.72
2023-01-01T19:16:38.563Z,100732.25
2023-01-01T19:18:43.130Z,100731.05
2023-01-01T19:20:47.572Z,100737.42
2023-01-01T19:22:52.014Z,100739.83
2023-01-01T19:24:56.710Z,100736.49
2023-01-01T19:27:01.140Z,100732.69
2023-01-01T19:29:05.566Z,100729.18
2023-01-01T19:31:10.096Z,100743.45
2023-01-01T19:33:14.986Z,100743.1
2023-01-01T19:35:19.524Z,100743.98
2023-01-01T19:37:24.016Z,100750.46
2023-01-01T19:39:28.463Z,100741.41
2023-01-01T19:41:32.854Z,100740.38
2023-01-01T19:43:37.318Z,100744.34
2023-01-01T19:45:41.717Z,100742.75
2023-01-01T19:47:46.125Z,100740.84
2023-01-01T19:49:56.496Z,100737.42
2023-01-01T19:52:00.957Z,100741.2
2023-01-01T19:54:05.453Z,100740.38
2023-01-01T19:56:09.873Z,100744.55
2023-01-01T19:58:14.275Z,100747.8
2023-01-01T20:00:18.741Z,100750.36
2023-01-01T20:02:53.400Z,100750.62
2023-01-01T20:04:58.607Z,100752.33
2023-01-01T20:07:03.098Z,100753.57
2023-01-01T20:09:07.463Z,100749.17
2023-01-01T20:11:11.937Z,100750.85
2023-01-01T20:13:16.377Z,100748.97
2023-01-01T20:15:20.804Z,100754.36
2023-01-01T20:17:25.280Z,100756.06
2023-01-01T20:19:29.732Z,100758.73
2023-01-01T20:21:34.267Z,100761.33
2023-01-01T20:23:38.673Z,100758.5
2023-01-01T20:25:43.196Z,100759.75
2023-01-01T20:27:55.646Z,100759.03
2023-01-01T20:30:00.047Z,100763.33
2023-01-01T20:32:04.739Z,100765.45
2023-01-01T20:34:09.231Z,100767.43
2023-01-01T20:36:13.753Z,100761.42
2023-01-01T20:38:18.174Z,100761.32
2023-01-01T20:40:22.546Z,100757.59
2023-01-01T20:42:26.977Z,100754.97
2023-01-01T20:44:31.462Z,100753.53
2023-01-01T20:46:35.953Z,100753.6
2023-01-01T20:48:40.385Z,100752.34
2023-01-01T20:50:44.804Z,100754.42
2023-01-01T20:52:49.250Z,100758.1
2023-01-01T20:54:53.791Z,100765.38
2023-01-01T20:56:58.194Z,100761.14
2023-01-01T20:59:35.191Z,100766.84
2023-01-01T21:01:41.809Z,100761.8
2023-01-01T21:03:46.475Z,100767.8
2023-01-01T21:05:51.007Z,100765.38
2023-01-01T21:07:55.454Z,100768.69
2023-01-01T21:09:59.924Z,100762.7
2023-01-01T21:12:04.451Z,100761.1
2023-01-01T21:14:08.910Z,100761.31
2023-01-01T21:16:13.499Z,100762.75
2023-01-01T21:18:18.027Z,100764
2023-01-01T21:20:22.459Z,100749.72
2023-01-01T21:22:26.846Z,100752.61
2023-01-01T21:24:31.309Z,100753.78
2023-01-01T21:26:35.726Z,100753.4
2023-01-01T21:28:40.184Z,100758.95
2023-01-01T21:30:44.591Z,100751.41
2023-01-01T21:32:48.952Z,100752.8
2023-01-01T21:34:53.537Z,100749.11
2023-01-01T21:36:57.904Z,100751.79
2023-01-01T21:39:02.301Z,100755.69
2023-01-01T21:41:06.710Z,100758.73
2023-01-01T21:43:11.155Z,100759.95
2023-01-01T21:45:15.589Z,100765.19
2023-01-01T21:47:20.047Z,100771.16
2023-01-01T21:49:24.487Z,100774.23
2023-01-01T21:51:28.905Z,100773.33
2023-01-01T21:53:33.476Z,100776.42
2023-01-01T21:55:37.893Z,100774.88
2023-01-01T21:57:42.279Z,100775.42
2023-01-01T21:59:46.701Z,100771.34
2023-01-01T22:01:51.438Z,100771.81
2023-01-01T22:03:56.164Z,100776.66
2023-01-01T22:06:00.736Z,100776.66
2023-01-01T22:08:05.153Z,100777.25
2023-01-01T22:10:09.565Z,100776.58
2023-01-01T22:12:14.020Z,100768.95
2023-01-01T22:14:18.443Z,100773.65
2023-01-01T22:16:22.987Z,100773.83
2023-01-01T22:18:27.483Z,100777.52
2023-01-01T22:20:31.975Z,100777.38
2023-01-01T22:22:36.414Z,100782.11
2023-01-01T22:24:40.823Z,100778.56
2023-01-01T22:26:45.243Z,100773.59
2023-01-01T22:28:49.673Z,100775.78
2023-01-01T22:30:54.308Z,100771.2
2023-01-01T22:32:58.868Z,100766.84
2023-01-01T22:35:03.299Z,100758.27
2023-01-01T22:37:07.685Z,100749.75
2023-01-01T22:39:12.120Z,100748.29
2023-01-01T22:41:16.620Z,100755.15
2023-01-01T22:43:21.049Z,100747.41
2023-01-01T22:45:25.475Z,100748.13
2023-01-01T22:47:29.856Z,100744.21
2023-01-01T22:49:34.393Z,100741.03
2023-01-01T22:51:38.791Z,100737.84
2023-01-01T22:53:43.206Z,100739.95
2023-01-01T22:55:47.686Z,100734.25
2023-01-01T22:57:52.071Z,100733.31
2023-01-01T22:59:56.517Z,100726.61
2023-01-01T23:02:00.901Z,100724.63
2023-01-01T23:04:05.580Z,100721.95
2023-01-01T23:06:10.053Z,100719.5
2023-01-01T23:08:14.509Z,100725.36
2023-01-01T23:10:18.927Z,100723.9
2023-01-01T23:12:23.346Z,100718.41
2023-01-01T23:14:27.775Z,100719.5
2023-01-01T23:16:32.356Z,100717.91
2023-01-01T23:18:36.792Z,100708.97
2023-01-01T23:20:41.203Z,100707.17
2023-01-01T23:22:45.662Z,100706.84
2023-01-01T23:24:50.057Z,100699.74
2023-01-01T23:26:54.598Z,100698.75
2023-01-01T23:28:59.042Z,100693.3
2023-01-01T23:31:03.604Z,100684.25
2023-01-01T23:33:08.226Z,100691.94
2023-01-01T23:35:12.721Z,100691.91
2023-01-01T23:37:17.151Z,100687.64
2023-01-01T23:39:21.549Z,100692.4
2023-01-01T23:41:26.121Z,100688.2
2023-01-01T23:43:30.569Z,100685.27
2023-01-01T23:45:35.047Z,100684.08
2023-01-01T23:47:39.531Z,100685.53
2023-01-01T23:49:43.932Z,100678.38
2023-01-01T23:51:48.352Z,100679.34
2023-01-01T23:53:52.778Z,100674.69
2023-01-01T23:55:57.278Z,100669.88